createdAt,value
2018-12-16T00:01:38.301Z,30.95
2018-12-16T00:04:06.505Z,32.10
2018-12-16T00:06:34.650Z,33.08
2018-12-16T00:09:03.370Z,31.15
2018-12-16T00:11:31.440Z,35.63
2018-12-16T00:13:59.800Z,31.52
2018-12-16T00:16:27.931Z,28.32
2018-12-16T00:18:56.050Z,31.45
2018-12-16T00:21:24.122Z,33.58
2018-12-16T00:23:52.317Z,35.43
2018-12-16T00:26:20.438Z,38.23
2018-12-16T00:28:48.604Z,36.80
2018-12-16T00:31:16.709Z,35.83
2018-12-16T00:33:44.770Z,33.33
2018-12-16T00:36:12.833Z,34.00
2018-12-16T00:38:40.942Z,37.93
2018-12-16T00:41:09.102Z,32.45
2018-12-16T00:43:37.162Z,35.83
2018-12-16T00:46:05.301Z,34.48
2018-12-16T00:48:33.352Z,37.60
2018-12-16T00:51:01.497Z,41.92
2018-12-16T00:53:29.556Z,38.45
2018-12-16T00:55:57.747Z,34.88
2018-12-16T00:58:25.895Z,42.98
2018-12-16T01:00:54.470Z,36.23
2018-12-16T01:03:22.641Z,37.45
2018-12-16T01:08:32.331Z,33.40
2018-12-16T01:11:00.651Z,35.75
2018-12-16T01:13:28.718Z,33.98
2018-12-16T01:15:56.842Z,42.05
2018-12-16T01:18:24.980Z,40.60
2018-12-16T01:20:53.050Z,37.73
2018-12-16T01:23:21.105Z,42.83
2018-12-16T01:25:49.173Z,37.20
2018-12-16T01:28:17.234Z,40.60
2018-12-16T01:30:45.295Z,36.50
2018-12-16T01:33:13.357Z,27.95
2018-12-16T01:35:41.429Z,40.73
2018-12-16T01:38:09.473Z,39.40
2018-12-16T01:40:37.582Z,35.85
2018-12-16T01:43:05.722Z,41.35
2018-12-16T01:45:33.854Z,40.28
2018-12-16T01:48:01.909Z,42.05
2018-12-16T01:50:30.048Z,45.92
2018-12-16T01:52:58.216Z,41.53
2018-12-16T01:55:26.313Z,36.42
2018-12-16T01:57:54.490Z,35.13
2018-12-16T02:00:22.579Z,39.33
2018-12-16T02:02:50.713Z,43.05
2018-12-16T02:05:18.846Z,38.13
2018-12-16T02:07:46.992Z,38.08
2018-12-16T02:10:15.147Z,40.30
2018-12-16T02:12:43.294Z,45.45
2018-12-16T02:15:11.698Z,38.53
2018-12-16T02:17:39.741Z,38.05
2018-12-16T02:20:07.885Z,45.55
2018-12-16T02:22:35.938Z,39.60
2018-12-16T02:25:06.484Z,47.05
2018-12-16T02:27:34.601Z,35.90
2018-12-16T02:30:02.740Z,37.85
2018-12-16T02:32:30.795Z,37.05
2018-12-16T02:34:58.957Z,37.65
2018-12-16T02:37:27.106Z,36.73
2018-12-16T02:39:55.218Z,38.13
2018-12-16T02:42:23.334Z,35.80
2018-12-16T02:44:51.532Z,39.05
2018-12-16T02:47:19.777Z,42.65
2018-12-16T02:49:47.956Z,41.20
2018-12-16T02:52:16.027Z,39.23
2018-12-16T02:54:44.153Z,36.00
2018-12-16T02:57:12.230Z,35.98
2018-12-16T02:59:40.395Z,41.37
2018-12-16T03:02:08.507Z,33.85
2018-12-16T03:04:36.577Z,36.42
2018-12-16T03:07:04.710Z,34.38
2018-12-16T03:09:32.777Z,40.20
2018-12-16T03:12:00.911Z,33.45
2018-12-16T03:14:29.041Z,35.92
2018-12-16T03:16:57.123Z,36.28
2018-12-16T03:19:25.274Z,33.73
2018-12-16T03:21:53.402Z,44.30
2018-12-16T03:24:21.516Z,36.38
2018-12-16T03:26:49.633Z,31.68
2018-12-16T03:29:17.695Z,43.85
2018-12-16T03:31:45.772Z,40.70
2018-12-16T03:34:13.891Z,31.05
2018-12-16T03:36:42.009Z,38.25
2018-12-16T03:39:10.314Z,35.85
2018-12-16T03:41:38.452Z,31.15
2018-12-16T03:44:06.609Z,35.20
2018-12-16T03:46:34.759Z,35.35
2018-12-16T03:49:02.857Z,32.75
2018-12-16T03:51:30.923Z,38.02
2018-12-16T03:53:58.995Z,33.73
2018-12-16T03:56:27.049Z,34.67
2018-12-16T03:59:06.649Z,30.20
2018-12-16T04:01:34.746Z,35.45
2018-12-16T04:04:02.790Z,48.35
2018-12-16T04:06:30.917Z,36.03
2018-12-16T04:08:58.982Z,37.60
2018-12-16T04:11:27.017Z,38.75
2018-12-16T04:13:55.100Z,37.67
2018-12-16T04:16:23.221Z,41.65
2018-12-16T04:18:51.274Z,39.33
2018-12-16T04:21:19.407Z,39.92
2018-12-16T04:23:47.493Z,38.42
2018-12-16T04:26:15.539Z,38.80
2018-12-16T04:28:43.818Z,41.05
2018-12-16T04:31:11.926Z,43.85
2018-12-16T04:33:39.992Z,36.35
2018-12-16T04:36:08.112Z,30.70
2018-12-16T04:38:36.262Z,37.63
2018-12-16T04:41:04.425Z,45.23
2018-12-16T04:43:32.512Z,38.05
2018-12-16T04:46:00.659Z,36.70
2018-12-16T04:48:28.715Z,38.05
2018-12-16T04:50:56.878Z,39.45
2018-12-16T04:53:24.930Z,40.83
2018-12-16T04:55:53.005Z,33.35
2018-12-16T04:58:21.206Z,36.77
2018-12-16T05:03:30.942Z,34.45
2018-12-16T05:05:59.066Z,41.13
2018-12-16T05:08:27.130Z,38.85
2018-12-16T05:10:55.205Z,42.98
2018-12-16T05:13:23.534Z,40.45
2018-12-16T05:15:51.606Z,34.92
2018-12-16T05:18:19.734Z,30.15
2018-12-16T05:20:47.778Z,33.70
2018-12-16T05:23:15.839Z,31.68
2018-12-16T05:25:43.888Z,45.15
2018-12-16T05:28:11.935Z,33.80
2018-12-16T05:30:40.094Z,43.68
2018-12-16T05:33:08.219Z,43.23
2018-12-16T05:35:36.386Z,35.08
2018-12-16T05:38:04.489Z,35.55
2018-12-16T05:40:32.619Z,37.17
2018-12-16T05:43:00.726Z,39.70
2018-12-16T05:45:28.783Z,35.15
2018-12-16T05:47:56.838Z,39.73
2018-12-16T05:50:25.106Z,39.65
2018-12-16T05:52:53.197Z,36.65
2018-12-16T05:55:21.332Z,34.15
2018-12-16T05:57:49.434Z,36.25
2018-12-16T06:00:17.494Z,40.67
2018-12-16T06:02:45.614Z,40.23
2018-12-16T06:05:13.674Z,40.35
2018-12-16T06:07:41.734Z,36.65
2018-12-16T06:10:09.890Z,40.70
2018-12-16T06:12:37.945Z,33.85
2018-12-16T06:15:06.178Z,42.27
2018-12-16T06:17:34.389Z,41.55
2018-12-16T06:20:02.493Z,40.00
2018-12-16T06:22:30.623Z,39.30
2018-12-16T06:24:58.754Z,36.48
2018-12-16T06:27:26.865Z,40.00
2018-12-16T06:29:55.275Z,45.92
2018-12-16T06:32:23.406Z,37.05
2018-12-16T06:34:51.543Z,38.55
2018-12-16T06:37:19.594Z,43.50
2018-12-16T06:39:47.659Z,38.70
2018-12-16T06:42:15.740Z,35.75
2018-12-16T06:44:43.818Z,41.10
2018-12-16T06:47:11.873Z,43.92
2018-12-16T06:49:39.929Z,40.38
2018-12-16T06:52:08.031Z,42.23
2018-12-16T06:54:36.074Z,45.78
2018-12-16T06:57:04.155Z,40.38
2018-12-16T06:59:32.211Z,37.83
2018-12-16T07:02:00.948Z,45.85
2018-12-16T07:04:29.046Z,39.78
2018-12-16T07:06:57.169Z,39.53
2018-12-16T07:09:25.210Z,41.90
2018-12-16T07:11:53.334Z,42.33
2018-12-16T07:14:21.432Z,41.77
2018-12-16T07:16:49.620Z,40.78
2018-12-16T07:19:17.666Z,40.75
2018-12-16T07:24:27.179Z,40.03
2018-12-16T07:26:55.335Z,43.98
2018-12-16T07:29:23.460Z,39.03
2018-12-16T07:31:51.528Z,38.85
2018-12-16T07:34:19.738Z,41.30
2018-12-16T07:36:48.115Z,48.87
2018-12-16T07:39:16.309Z,42.43
2018-12-16T07:41:44.381Z,46.98
2018-12-16T07:44:12.562Z,46.68
2018-12-16T07:46:40.660Z,39.18
2018-12-16T07:49:08.847Z,39.78
2018-12-16T07:51:36.982Z,37.00
2018-12-16T07:54:05.102Z,42.55
2018-12-16T07:56:33.305Z,42.43
2018-12-16T07:59:01.416Z,45.63
2018-12-16T08:01:29.605Z,42.65
2018-12-16T08:03:57.667Z,42.90
2018-12-16T08:06:25.875Z,42.48
2018-12-16T08:08:53.930Z,42.45
2018-12-16T08:11:22.033Z,37.13
2018-12-16T08:13:50.079Z,44.27
2018-12-16T08:16:18.133Z,42.25
2018-12-16T08:18:46.191Z,42.78
2018-12-16T08:21:14.350Z,38.02
2018-12-16T08:23:42.395Z,37.17
2018-12-16T08:26:10.434Z,42.98
2018-12-16T08:28:38.547Z,43.13
2018-12-16T08:31:06.623Z,38.70
2018-12-16T08:33:34.673Z,44.67
2018-12-16T08:36:02.801Z,41.40
2018-12-16T08:38:30.922Z,39.23
2018-12-16T08:40:59.180Z,36.70
2018-12-16T08:43:27.286Z,42.78
2018-12-16T08:45:55.442Z,43.00
2018-12-16T08:48:23.576Z,38.53
2018-12-16T08:50:51.627Z,39.08
2018-12-16T08:53:19.680Z,42.15
2018-12-16T08:55:47.729Z,37.90
2018-12-16T08:58:15.773Z,42.98
2018-12-16T09:00:43.850Z,43.00
2018-12-16T09:03:12.000Z,38.23
2018-12-16T09:05:40.115Z,39.98
2018-12-16T09:08:08.227Z,38.85
2018-12-16T09:10:36.262Z,40.58
2018-12-16T09:13:04.592Z,44.53
2018-12-16T09:15:32.722Z,39.05
2018-12-16T09:18:00.826Z,42.43
2018-12-16T09:20:28.941Z,37.78
2018-12-16T09:22:57.017Z,45.73
2018-12-16T09:25:25.158Z,44.00
2018-12-16T09:27:53.270Z,36.80
2018-12-16T09:30:21.311Z,36.68
2018-12-16T09:32:49.387Z,44.05
2018-12-16T09:35:17.449Z,39.67
2018-12-16T09:40:27.114Z,41.53
2018-12-16T09:42:55.194Z,41.20
2018-12-16T09:45:23.274Z,43.60
2018-12-16T09:47:51.373Z,36.80
2018-12-16T09:50:19.602Z,37.48
2018-12-16T09:52:47.695Z,37.17
2018-12-16T09:55:15.790Z,41.35
2018-12-16T09:57:43.845Z,46.30
2018-12-16T10:00:12.057Z,34.30
2018-12-16T10:02:40.099Z,39.70
2018-12-16T10:05:08.248Z,39.80
2018-12-16T10:07:36.292Z,42.58
2018-12-16T10:10:05.950Z,39.60
2018-12-16T10:12:33.993Z,35.10
2018-12-16T10:15:02.177Z,37.93
2018-12-16T10:17:30.255Z,51.58
2018-12-16T10:19:58.402Z,37.67
2018-12-16T10:22:26.449Z,39.48
2018-12-16T10:24:54.560Z,39.42
2018-12-16T10:27:22.613Z,44.10
2018-12-16T10:29:50.730Z,40.38
2018-12-16T10:32:18.911Z,43.00
2018-12-16T10:34:46.958Z,45.23
2018-12-16T10:37:15.093Z,39.85
2018-12-16T10:39:43.699Z,41.58
2018-12-16T10:42:11.833Z,36.25
2018-12-16T10:44:39.883Z,39.35
2018-12-16T10:47:07.986Z,39.63
2018-12-16T10:49:36.089Z,40.40
2018-12-16T10:52:04.137Z,38.73
2018-12-16T10:54:32.183Z,41.20
2018-12-16T10:57:00.228Z,41.33
2018-12-16T10:59:28.470Z,39.50
2018-12-16T11:01:56.618Z,38.95
2018-12-16T11:04:24.724Z,44.05
2018-12-16T11:06:52.879Z,39.18
2018-12-16T11:09:21.069Z,37.38
2018-12-16T11:11:49.105Z,43.23
2018-12-16T11:14:17.170Z,42.27
2018-12-16T11:16:45.201Z,37.88
2018-12-16T11:19:13.315Z,38.78
2018-12-16T11:21:41.363Z,35.10
2018-12-16T11:24:09.392Z,35.38
2018-12-16T11:26:37.422Z,37.42
2018-12-16T11:29:05.538Z,34.67
2018-12-16T11:31:33.606Z,35.80
2018-12-16T11:34:01.730Z,36.40
2018-12-16T11:36:29.816Z,34.30
2018-12-16T11:38:57.934Z,31.35
2018-12-16T11:41:26.069Z,35.70
2018-12-16T11:43:54.173Z,32.88
2018-12-16T11:46:22.226Z,37.33
2018-12-16T11:48:50.261Z,33.45
2018-12-16T11:51:18.433Z,32.00
2018-12-16T11:53:46.538Z,31.05
2018-12-16T11:56:14.587Z,34.30
2018-12-16T11:58:42.641Z,34.67
2018-12-16T12:01:10.762Z,33.95
2018-12-16T12:03:38.822Z,35.03
2018-12-16T12:06:06.886Z,32.90
2018-12-16T12:08:34.991Z,29.25
2018-12-16T12:11:03.050Z,35.75
2018-12-16T12:13:31.174Z,34.38
2018-12-16T12:15:59.286Z,34.88
2018-12-16T12:18:27.351Z,35.43
2018-12-16T12:20:55.511Z,31.97
2018-12-16T12:23:23.546Z,31.23
2018-12-16T12:25:51.698Z,32.80
2018-12-16T12:28:20.053Z,35.17
2018-12-16T12:30:48.168Z,36.40
2018-12-16T12:33:16.499Z,32.10
2018-12-16T12:35:44.576Z,32.35
2018-12-16T12:38:12.666Z,27.55
2018-12-16T12:40:40.698Z,30.27
2018-12-16T12:43:08.825Z,30.75
2018-12-16T12:45:36.946Z,34.38
2018-12-16T12:48:05.070Z,31.15
2018-12-16T12:50:33.138Z,36.08
2018-12-16T12:53:01.314Z,33.02
2018-12-16T12:55:29.448Z,34.27
2018-12-16T12:57:57.580Z,33.55
2018-12-16T13:00:25.827Z,39.18
2018-12-16T13:02:53.910Z,32.50
2018-12-16T13:05:22.053Z,29.57
2018-12-16T13:07:50.107Z,29.25
2018-12-16T13:10:18.161Z,33.40
2018-12-16T13:12:46.224Z,34.18
2018-12-16T13:15:14.318Z,29.70
2018-12-16T13:17:42.437Z,31.02
2018-12-16T13:20:10.988Z,29.02
2018-12-16T13:22:39.039Z,29.55
2018-12-16T13:25:18.555Z,29.80
2018-12-16T13:27:46.654Z,32.40
2018-12-16T13:30:14.803Z,34.00
2018-12-16T13:32:42.851Z,32.78
2018-12-16T13:35:10.898Z,29.72
2018-12-16T13:37:39.017Z,33.08
2018-12-16T13:40:07.987Z,32.65
2018-12-16T13:42:36.206Z,30.02
2018-12-16T13:45:05.454Z,29.05
2018-12-16T13:47:33.511Z,30.27
2018-12-16T13:50:01.887Z,23.15
2018-12-16T13:52:29.998Z,28.90
2018-12-16T13:54:58.086Z,22.98
2018-12-16T13:57:26.152Z,26.57
2018-12-16T13:59:54.193Z,28.77
2018-12-16T14:02:22.254Z,21.48
2018-12-16T14:04:50.314Z,23.75
2018-12-16T14:07:18.419Z,24.32
2018-12-16T14:09:46.452Z,28.70
2018-12-16T14:12:14.497Z,25.70
2018-12-16T14:14:42.562Z,27.05
2018-12-16T14:17:10.597Z,26.50
2018-12-16T14:19:38.653Z,23.05
2018-12-16T14:22:06.723Z,25.23
2018-12-16T14:24:34.774Z,26.10
2018-12-16T14:27:02.822Z,24.27
2018-12-16T14:29:30.855Z,25.45
2018-12-16T14:31:58.954Z,23.32
2018-12-16T14:34:28.007Z,21.82
2018-12-16T14:37:02.687Z,25.85
2018-12-16T14:39:30.813Z,18.17
2018-12-16T14:41:58.916Z,19.67
2018-12-16T14:44:27.159Z,19.55
2018-12-16T14:46:55.287Z,21.37
2018-12-16T14:52:04.972Z,19.62
2018-12-16T14:54:33.056Z,25.12
2018-12-16T14:57:01.113Z,18.37
2018-12-16T14:59:29.209Z,22.62
2018-12-16T15:01:57.312Z,23.83
2018-12-16T15:04:25.370Z,20.90
2018-12-16T15:06:53.480Z,22.50
2018-12-16T15:09:22.316Z,19.75
2018-12-16T15:11:51.129Z,18.48
2018-12-16T15:14:19.790Z,20.17
2018-12-16T15:16:48.493Z,22.55
2018-12-16T15:19:17.106Z,20.37
2018-12-16T15:21:45.819Z,18.50
2018-12-16T15:24:14.286Z,18.25
2018-12-16T15:26:42.816Z,18.12
2018-12-16T15:29:10.842Z,16.65
2018-12-16T15:31:38.946Z,27.60
2018-12-16T15:34:07.035Z,22.65
2018-12-16T15:36:35.111Z,23.55
2018-12-16T15:39:03.385Z,22.02
2018-12-16T15:41:31.454Z,22.77
2018-12-16T15:43:59.497Z,23.47
2018-12-16T15:46:27.539Z,17.70
2018-12-16T15:48:55.578Z,24.72
2018-12-16T15:51:23.732Z,23.77
2018-12-16T15:53:51.901Z,21.52
2018-12-16T15:56:21.656Z,21.12
2018-12-16T15:58:49.834Z,19.65
2018-12-16T16:01:17.939Z,19.75
2018-12-16T16:03:46.817Z,16.60
2018-12-16T16:06:14.839Z,22.45
2018-12-16T16:08:42.979Z,18.02
2018-12-16T16:11:11.074Z,13.68
2018-12-16T16:13:39.106Z,11.22
2018-12-16T16:16:07.205Z,11.48
2018-12-16T16:18:35.414Z,11.83
2018-12-16T16:21:03.513Z,17.27
2018-12-16T16:23:31.552Z,14.18
2018-12-16T16:25:59.658Z,13.58
2018-12-16T16:28:27.686Z,16.15
2018-12-16T16:30:55.723Z,14.05
2018-12-16T16:33:23.758Z,12.65
2018-12-16T16:35:51.806Z,10.00
2018-12-16T16:38:19.937Z,8.93
2018-12-16T16:40:48.221Z,8.05
2018-12-16T16:43:16.268Z,10.93
2018-12-16T16:45:44.399Z,10.10
2018-12-16T16:48:12.434Z,13.45
2018-12-16T16:50:40.523Z,9.50
2018-12-16T16:53:08.554Z,12.20
2018-12-16T16:55:36.594Z,18.17
2018-12-16T16:58:04.770Z,8.18
2018-12-16T17:00:32.858Z,13.10
2018-12-16T17:03:00.919Z,13.85
2018-12-16T17:05:28.944Z,15.32
2018-12-16T17:07:56.973Z,16.90
2018-12-16T17:10:25.010Z,12.28
2018-12-16T17:12:53.106Z,15.53
2018-12-16T17:15:21.170Z,13.03
2018-12-16T17:17:49.262Z,10.00
2018-12-16T17:20:17.306Z,7.95
2018-12-16T17:22:45.348Z,11.57
2018-12-16T17:25:13.461Z,11.12
2018-12-16T17:27:41.495Z,9.90
2018-12-16T17:30:10.565Z,16.50
2018-12-16T17:32:38.662Z,8.63
2018-12-16T17:35:06.762Z,10.50
2018-12-16T17:37:34.804Z,11.50
2018-12-16T17:40:02.964Z,8.95
2018-12-16T17:42:31.011Z,12.93
2018-12-16T17:44:59.034Z,9.33
2018-12-16T17:47:27.093Z,11.57
2018-12-16T17:49:55.192Z,10.95
2018-12-16T17:52:23.229Z,9.60
2018-12-16T17:54:51.278Z,11.95
2018-12-16T17:57:19.321Z,11.08
2018-12-16T17:59:47.413Z,8.45
2018-12-16T18:02:15.519Z,10.93
2018-12-16T18:04:43.556Z,13.75
2018-12-16T18:07:11.726Z,13.58
2018-12-16T18:09:39.828Z,11.40
2018-12-16T18:12:07.956Z,13.62
2018-12-16T18:14:35.987Z,13.28
2018-12-16T18:17:05.052Z,13.85
2018-12-16T18:19:33.186Z,14.00
2018-12-16T18:22:01.439Z,16.17
2018-12-16T18:24:29.616Z,12.03
2018-12-16T18:26:57.714Z,11.15
2018-12-16T18:29:25.816Z,13.95
2018-12-16T18:31:53.860Z,13.40
2018-12-16T18:34:21.894Z,14.10
2018-12-16T18:36:50.014Z,16.95
2018-12-16T18:39:18.143Z,13.98
2018-12-16T18:41:46.414Z,12.10
2018-12-16T18:44:14.456Z,13.18
2018-12-16T18:46:42.578Z,6.37
2018-12-16T18:49:10.627Z,9.68
2018-12-16T18:51:38.708Z,7.15
2018-12-16T18:54:06.825Z,8.93
2018-12-16T18:56:34.893Z,9.98
2018-12-16T18:59:02.942Z,12.13
2018-12-16T19:01:31.058Z,13.22
2018-12-16T19:03:59.102Z,11.75
2018-12-16T19:06:27.182Z,17.98
2018-12-16T19:08:55.244Z,11.80
2018-12-16T19:11:23.378Z,11.93
2018-12-16T19:13:51.429Z,11.28
2018-12-16T19:16:19.477Z,12.95
2018-12-16T19:18:47.570Z,12.23
2018-12-16T19:21:15.737Z,10.15
2018-12-16T19:23:43.870Z,12.95
2018-12-16T19:26:12.205Z,13.43
2018-12-16T19:28:40.305Z,13.85
2018-12-16T19:31:08.400Z,14.15
2018-12-16T19:33:36.496Z,11.95
2018-12-16T19:36:04.671Z,10.15
2018-12-16T19:38:32.718Z,11.83
2018-12-16T19:41:00.763Z,14.98
2018-12-16T19:43:28.809Z,10.40
2018-12-16T19:45:56.907Z,11.45
2018-12-16T19:48:24.993Z,11.68
2018-12-16T19:50:53.023Z,13.28
2018-12-16T19:53:21.085Z,13.25
2018-12-16T19:55:49.122Z,19.77
2018-12-16T19:58:17.156Z,13.90
2018-12-16T20:00:45.240Z,15.63
2018-12-16T20:03:13.268Z,20.32
2018-12-16T20:05:46.702Z,15.78
2018-12-16T20:08:14.733Z,10.63
2018-12-16T20:10:42.779Z,16.52
2018-12-16T20:13:11.546Z,13.68
2018-12-16T20:15:39.574Z,12.70
2018-12-16T20:18:07.606Z,10.15
2018-12-16T20:20:35.656Z,11.75
2018-12-16T20:23:03.696Z,11.83
2018-12-16T20:25:31.851Z,10.40
2018-12-16T20:27:59.870Z,10.28
2018-12-16T20:30:27.914Z,25.97
2018-12-16T20:32:55.949Z,9.70
2018-12-16T20:35:24.418Z,14.30
2018-12-16T20:37:52.865Z,14.65
2018-12-16T20:40:20.897Z,13.50
2018-12-16T20:42:49.174Z,23.30
2018-12-16T20:45:17.183Z,11.40
2018-12-16T20:47:45.214Z,18.23
2018-12-16T20:50:13.303Z,11.53
2018-12-16T20:52:41.361Z,11.95
2018-12-16T20:55:09.459Z,16.67
2018-12-16T20:57:37.495Z,12.30
2018-12-16T21:00:06.153Z,10.38
2018-12-16T21:02:34.189Z,8.40
2018-12-16T21:05:02.275Z,10.00
2018-12-16T21:07:30.286Z,9.28
2018-12-16T21:09:58.307Z,13.62
2018-12-16T21:12:31.766Z,8.28
2018-12-16T21:15:05.186Z,8.33
2018-12-16T21:17:39.000Z,13.32
2018-12-16T21:20:07.484Z,12.45
2018-12-16T21:22:35.575Z,10.63
2018-12-16T21:25:03.721Z,16.17
2018-12-16T21:27:32.715Z,12.75
2018-12-16T21:30:00.750Z,11.45
2018-12-16T21:32:28.844Z,14.70
2018-12-16T21:34:56.954Z,17.90
2018-12-16T21:37:24.973Z,12.15
2018-12-16T21:39:53.010Z,12.33
2018-12-16T21:42:21.094Z,10.32
2018-12-16T21:44:49.129Z,9.73
2018-12-16T21:47:17.210Z,9.70
2018-12-16T21:49:45.258Z,10.78
2018-12-16T21:52:13.336Z,7.00
2018-12-16T21:54:41.382Z,10.15
2018-12-16T21:57:09.415Z,10.58
2018-12-16T21:59:37.458Z,14.30
2018-12-16T22:02:05.477Z,13.22
2018-12-16T22:04:33.495Z,13.55
2018-12-16T22:07:01.510Z,7.87
2018-12-16T22:09:29.611Z,10.32
2018-12-16T22:11:57.633Z,10.08
2018-12-16T22:14:25.657Z,14.80
2018-12-16T22:16:53.677Z,11.28
2018-12-16T22:19:21.752Z,13.58
2018-12-16T22:21:50.530Z,10.80
2018-12-16T22:24:18.598Z,10.25
2018-12-16T22:26:46.613Z,9.28
2018-12-16T22:29:14.652Z,13.58
2018-12-16T22:31:42.666Z,10.60
2018-12-16T22:34:10.706Z,10.32
2018-12-16T22:36:38.725Z,13.78
2018-12-16T22:39:07.817Z,9.83
2018-12-16T22:41:35.915Z,10.32
2018-12-16T22:44:04.243Z,12.88
2018-12-16T22:46:32.547Z,13.83
2018-12-16T22:49:01.766Z,20.62
2018-12-16T22:51:29.794Z,10.15
2018-12-16T22:53:57.870Z,13.20
2018-12-16T22:56:25.914Z,12.82
2018-12-16T22:58:54.477Z,10.13
2018-12-16T23:01:22.833Z,13.62
2018-12-16T23:03:50.856Z,12.43
2018-12-16T23:06:18.952Z,11.28
2018-12-16T23:08:46.969Z,10.82
2018-12-16T23:11:15.077Z,13.25
2018-12-16T23:13:43.182Z,12.47
2018-12-16T23:16:11.298Z,13.32
2018-12-16T23:18:39.768Z,15.45
2018-12-16T23:21:07.837Z,8.90
2018-12-16T23:23:35.930Z,12.43
2018-12-16T23:26:04.019Z,12.35
2018-12-16T23:28:32.063Z,21.65
2018-12-16T23:31:00.151Z,10.60
2018-12-16T23:33:28.226Z,12.15
2018-12-16T23:35:56.294Z,16.07
2018-12-16T23:38:24.310Z,11.15
2018-12-16T23:40:52.395Z,14.65
2018-12-16T23:43:20.418Z,12.43
2018-12-16T23:45:48.453Z,11.70
2018-12-16T23:48:16.518Z,9.58
2018-12-16T23:50:44.554Z,11.05
2018-12-16T23:53:12.599Z,10.98
2018-12-16T23:55:40.629Z,10.35
2018-12-16T23:58:08.670Z,10.23
